Time;durP1;ratioP1;P1;durP2;ratioP2;P2;SDS_P1;SDS_P2;PMS_P1;PMS_P2;Temp;Humidity;BMP_temperature;BMP_pressure;BME280_temperature;BME280_humidity;BME280_pressure;Samples;Min_cycle;Max_cycle;Signal;HPM_P1;HPM_P2
2023/11/25 00:02:21;;;;;;;7.40;1.20;;;2.10;99.90;;;;;;5043904;28;20059;-85
2023/11/25 00:04:47;;;;;;;10.70;1.20;;;2.20;99.90;;;;;;5046400;28;20119;-84
2023/11/25 00:07:13;;;;;;;5.47;0.88;;;2.20;99.90;;;;;;5060925;28;20032;-86
2023/11/25 00:09:38;;;;;;;2.30;0.50;;;2.20;99.90;;;;;;5047096;28;20028;-82
2023/11/25 00:12:04;;;;;;;3.13;0.63;;;2.10;99.90;;;;;;5048717;28;20064;-84
2023/11/25 00:14:30;;;;;;;4.28;0.90;;;2.20;99.90;;;;;;5046919;28;20035;-87
2023/11/25 00:16:55;;;;;;;3.75;0.95;;;2.10;99.90;;;;;;5046703;28;20046;-85
2023/11/25 00:19:21;;;;;;;8.00;0.85;;;2.20;99.90;;;;;;5045661;28;20036;-85
2023/11/25 00:21:46;;;;;;;4.32;0.93;;;2.20;99.90;;;;;;5055031;28;20722;-85
2023/11/25 00:24:12;;;;;;;5.18;0.60;;;2.20;99.90;;;;;;5031647;28;20426;-85
2023/11/25 00:26:37;;;;;;;9.02;1.40;;;2.30;99.90;;;;;;5061592;28;20036;-86
2023/11/25 00:29:03;;;;;;;2.70;0.75;;;2.30;99.90;;;;;;5046677;28;20089;-84
2023/11/25 00:31:29;;;;;;;4.78;1.20;;;2.30;99.90;;;;;;5031519;28;20040;-85
2023/11/25 00:33:56;;;;;;;7.90;0.90;;;2.30;99.90;;;;;;5045277;28;20024;-82
2023/11/25 00:36:22;;;;;;;6.40;1.08;;;2.20;99.90;;;;;;5048803;28;20043;-82
2023/11/25 00:38:47;;;;;;;7.32;1.00;;;2.20;99.90;;;;;;5046388;28;20411;-85
2023/11/25 00:41:13;;;;;;;3.58;0.73;;;2.30;99.90;;;;;;5030015;28;20032;-85
2023/11/25 00:43:38;;;;;;;13.40;1.45;;;2.40;99.90;;;;;;5044641;28;20067;-86
2023/11/25 00:46:04;;;;;;;2.63;0.75;;;2.40;99.90;;;;;;5047217;28;20053;-84
2023/11/25 00:48:35;;;;;;;5.68;1.30;;;2.40;99.90;;;;;;5058017;28;20062;-86
2023/11/25 00:51:01;;;;;;;6.43;1.15;;;2.30;99.90;;;;;;5060796;28;20067;-86
2023/11/25 00:53:26;;;;;;;6.60;1.08;;;2.40;99.90;;;;;;5059539;28;20392;-90
2023/11/25 00:55:52;;;;;;;7.43;1.15;;;2.50;99.90;;;;;;5042451;28;20029;-82
2023/11/25 00:58:18;;;;;;;6.72;1.20;;;2.50;99.90;;;;;;5055059;28;20086;-85
2023/11/25 01:00:44;;;;;;;5.75;1.58;;;2.40;99.90;;;;;;5047594;28;20048;-86
2023/11/25 01:03:09;;;;;;;3.13;0.75;;;2.50;99.90;;;;;;5031729;28;20041;-85
2023/11/25 01:05:35;;;;;;;10.98;1.50;;;2.50;99.90;;;;;;5029427;28;20040;-86
2023/11/25 01:08:01;;;;;;;5.35;0.90;;;2.50;99.90;;;;;;5044505;28;20545;-86
2023/11/25 01:10:26;;;;;;;9.13;1.38;;;2.50;99.90;;;;;;5026483;28;20040;-87
2023/11/25 01:12:53;;;;;;;7.60;1.40;;;2.50;99.90;;;;;;5043739;28;20028;-86
2023/11/25 01:15:19;;;;;;;4.80;1.50;;;2.50;99.90;;;;;;5032945;28;20031;-85
2023/11/25 01:17:45;;;;;;;4.53;0.75;;;2.40;99.90;;;;;;5046211;28;20025;-87
2023/11/25 01:20:11;;;;;;;3.33;1.15;;;2.40;99.90;;;;;;5046491;28;20033;-85
2023/11/25 01:22:38;;;;;;;11.10;1.65;;;2.60;99.90;;;;;;5063572;28;20078;-83
2023/11/25 01:25:06;;;;;;;12.90;1.80;;;2.40;99.90;;;;;;5030787;28;20529;-86
2023/11/25 01:27:33;;;;;;;8.43;2.10;;;2.50;99.90;;;;;;5048126;28;20037;-84
2023/11/25 01:30:00;;;;;;;9.85;2.72;;;2.50;99.90;;;;;;5060007;28;20044;-85
2023/11/25 01:32:26;;;;;;;9.10;1.80;;;2.50;99.90;;;;;;5040531;28;20527;-78
2023/11/25 01:34:51;;;;;;;8.27;1.45;;;2.50;99.90;;;;;;5026650;28;20028;-77
2023/11/25 01:37:17;;;;;;;6.78;2.40;;;2.40;99.90;;;;;;5049497;28;20029;-77
2023/11/25 01:39:43;;;;;;;7.57;2.63;;;2.30;99.90;;;;;;5055583;28;20037;-77
2023/11/25 01:42:09;;;;;;;5.28;1.63;;;2.30;99.90;;;;;;5041201;28;20594;-77
2023/11/25 01:44:34;;;;;;;9.98;2.08;;;2.40;99.90;;;;;;5058784;28;20115;-77
2023/11/25 01:47:00;;;;;;;8.05;1.85;;;2.30;99.90;;;;;;5043831;28;20037;-77
2023/11/25 01:49:25;;;;;;;2.22;1.10;;;2.30;99.90;;;;;;5030789;28;20036;-77
2023/11/25 01:51:51;;;;;;;7.03;1.88;;;2.20;99.90;;;;;;5027755;28;20028;-78
2023/11/25 01:54:17;;;;;;;9.55;2.80;;;2.20;99.90;;;;;;5048610;28;20085;-78
2023/11/25 01:56:48;;;;;;;8.02;1.95;;;2.20;99.90;;;;;;5022333;28;20039;-78
2023/11/25 01:59:15;;;;;;;9.48;2.05;;;2.20;99.90;;;;;;5039639;28;20037;-77
2023/11/25 02:01:41;;;;;;;9.88;2.55;;;2.10;99.90;;;;;;5045334;28;20740;-77
2023/11/25 02:04:07;;;;;;;9.50;1.58;;;2.00;99.90;;;;;;5045351;28;20232;-77
2023/11/25 02:06:34;;;;;;;8.52;2.00;;;1.90;99.90;;;;;;5027789;28;20055;-77
2023/11/25 02:09:00;;;;;;;10.30;2.47;;;2.00;99.90;;;;;;5054657;28;20036;-77
2023/11/25 02:11:26;;;;;;;13.13;2.55;;;2.00;99.90;;;;;;5045242;28;20564;-79
2023/11/25 02:13:51;;;;;;;8.23;2.08;;;1.90;99.90;;;;;;5038666;28;20084;-76
2023/11/25 02:16:17;;;;;;;11.80;2.15;;;2.00;99.90;;;;;;5024535;28;20565;-77
2023/11/25 02:18:43;;;;;;;9.70;1.27;;;2.00;99.90;;;;;;5055924;28;20048;-77
2023/11/25 02:21:10;;;;;;;4.95;0.95;;;1.90;99.90;;;;;;5023054;28;20024;-77
2023/11/25 02:23:35;;;;;;;10.57;1.90;;;2.00;99.90;;;;;;5031806;28;20066;-77
2023/11/25 02:26:02;;;;;;;11.32;1.85;;;1.80;99.90;;;;;;5033003;28;20040;-77
2023/11/25 02:28:28;;;;;;;10.93;1.70;;;1.80;99.90;;;;;;5039661;28;20683;-78
2023/11/25 02:30:53;;;;;;;10.02;1.73;;;1.80;99.90;;;;;;5059144;28;20048;-78
2023/11/25 02:33:21;;;;;;;4.88;1.10;;;1.80;99.90;;;;;;5041505;28;20029;-77
2023/11/25 02:35:47;;;;;;;9.23;1.60;;;1.80;99.90;;;;;;5030126;28;20032;-77
2023/11/25 02:38:14;;;;;;;10.70;1.77;;;1.80;99.90;;;;;;5044541;28;20031;-77
2023/11/25 02:40:40;;;;;;;9.40;2.35;;;1.80;99.90;;;;;;5039235;28;20070;-76
2023/11/25 02:43:07;;;;;;;7.82;1.35;;;1.80;99.90;;;;;;5044388;28;20121;-86
2023/11/25 02:45:33;;;;;;;11.25;2.13;;;1.70;99.90;;;;;;5045662;28;20115;-85
2023/11/25 02:47:59;;;;;;;9.00;2.00;;;1.70;99.90;;;;;;5031524;28;20136;-86
2023/11/25 02:50:27;;;;;;;5.63;1.75;;;1.60;99.90;;;;;;5023217;28;20608;-85
2023/11/25 02:52:54;;;;;;;8.77;2.35;;;1.60;99.90;;;;;;5045998;28;20065;-86
2023/11/25 02:55:20;;;;;;;18.02;2.55;;;1.80;99.90;;;;;;5028102;28;20500;-84
2023/11/25 02:57:46;;;;;;;4.55;1.20;;;1.60;99.90;;;;;;5060118;28;20459;-87
2023/11/25 03:00:33;;;;;;;12.23;2.83;;;1.60;99.90;;;;;;5045760;28;20028;-86
2023/11/25 03:03:16;;;;;;;12.98;2.45;;;1.60;99.90;;;;;;5027568;28;20045;-86
2023/11/25 03:05:42;;;;;;;5.70;1.33;;;1.30;99.90;;;;;;5057357;28;20553;-82
2023/11/25 03:08:12;;;;;;;11.23;2.05;;;1.60;99.90;;;;;;5022359;28;20044;-87
2023/11/25 03:10:41;;;;;;;7.57;1.88;;;1.50;99.90;;;;;;5037486;28;20522;-86
2023/11/25 03:13:09;;;;;;;17.00;2.83;;;1.50;99.90;;;;;;5043115;28;20082;-86
2023/11/25 03:15:34;;;;;;;7.13;1.35;;;1.60;99.90;;;;;;5024227;28;20041;-87
2023/11/25 03:18:01;;;;;;;12.25;2.80;;;1.50;99.90;;;;;;5057689;28;20032;-86
2023/11/25 03:20:27;;;;;;;10.05;2.08;;;1.50;99.90;;;;;;5025387;28;20158;-85
2023/11/25 03:22:53;;;;;;;8.15;1.50;;;1.40;99.90;;;;;;5056625;28;20108;-85
2023/11/25 03:25:22;;;;;;;12.18;1.90;;;1.50;99.90;;;;;;5026643;28;20031;-86
2023/11/25 03:27:47;;;;;;;4.15;1.80;;;1.50;99.90;;;;;;5032514;28;20032;-85
2023/11/25 03:30:13;;;;;;;13.82;2.53;;;1.50;99.90;;;;;;5046436;28;20036;-86
2023/11/25 03:32:39;;;;;;;6.43;1.35;;;1.40;99.90;;;;;;5057472;28;20041;-85
2023/11/25 03:35:06;;;;;;;11.73;2.65;;;1.50;99.90;;;;;;5040435;28;20116;-86
2023/11/25 03:37:32;;;;;;;16.70;2.40;;;1.60;99.90;;;;;;5044610;28;20060;-84
2023/11/25 03:39:58;;;;;;;14.25;1.67;;;1.60;99.90;;;;;;5059343;28;20024;-85
2023/11/25 03:42:23;;;;;;;10.20;2.22;;;1.40;99.90;;;;;;5032463;28;20033;-84
2023/11/25 03:44:49;;;;;;;15.82;2.10;;;1.50;99.90;;;;;;5028355;28;20033;-85
2023/11/25 03:47:15;;;;;;;9.68;2.20;;;1.70;99.90;;;;;;5043683;28;20056;-86
2023/11/25 03:49:40;;;;;;;13.05;3.20;;;1.70;99.90;;;;;;5043993;28;20076;-85
2023/11/25 03:52:06;;;;;;;19.33;3.25;;;1.60;99.90;;;;;;5058861;28;20032;-86
2023/11/25 03:54:35;;;;;;;17.38;3.13;;;1.70;99.90;;;;;;5047079;28;20044;-86
2023/11/25 03:57:00;;;;;;;7.82;1.45;;;1.80;99.90;;;;;;5036218;28;20028;-84
2023/11/25 03:59:26;;;;;;;9.88;1.92;;;1.90;99.90;;;;;;5027275;28;20145;-86
2023/11/25 04:01:52;;;;;;;15.35;3.55;;;1.90;99.90;;;;;;5045432;28;20032;-85
2023/11/25 04:04:17;;;;;;;18.38;2.67;;;1.90;99.90;;;;;;5033327;28;20123;-84
2023/11/25 04:06:43;;;;;;;14.70;3.47;;;1.80;99.90;;;;;;5066241;28;20077;-87
2023/11/25 04:09:09;;;;;;;28.13;3.75;;;1.90;99.90;;;;;;5045765;28;20032;-86
2023/11/25 04:11:35;;;;;;;16.90;3.95;;;1.90;99.90;;;;;;5045047;28;20460;-86
2023/11/25 04:14:00;;;;;;;12.70;2.55;;;1.90;99.90;;;;;;5052703;28;20116;-85
2023/11/25 04:16:26;;;;;;;8.38;1.48;;;1.90;99.90;;;;;;5059844;28;20052;-85
2023/11/25 04:18:51;;;;;;;15.73;3.05;;;2.00;99.90;;;;;;5060934;28;20419;-85
2023/11/25 04:21:21;;;;;;;11.60;2.97;;;1.90;99.90;;;;;;5024895;28;20520;-86
2023/11/25 04:23:51;;;;;;;11.88;1.05;;;1.90;99.90;;;;;;5047561;28;20052;-82
2023/11/25 04:26:19;;;;;;;20.95;2.40;;;1.90;99.90;;;;;;5030329;28;20060;-84
2023/11/25 04:28:45;;;;;;;14.50;2.83;;;1.90;99.90;;;;;;5058105;28;20137;-86
2023/11/25 04:31:11;;;;;;;3.80;1.48;;;1.90;99.90;;;;;;5029590;28;20090;-86
2023/11/25 04:33:36;;;;;;;17.90;3.22;;;1.90;99.90;;;;;;5060001;28;20126;-85
2023/11/25 04:36:02;;;;;;;24.52;2.70;;;1.90;99.90;;;;;;5046757;28;20035;-84
2023/11/25 04:38:28;;;;;;;32.75;3.25;;;2.00;99.90;;;;;;5026973;28;20556;-86
2023/11/25 04:40:54;;;;;;;13.40;2.30;;;1.90;99.90;;;;;;5028433;28;20033;-84
2023/11/25 04:43:20;;;;;;;9.15;1.77;;;2.00;99.90;;;;;;5058717;28;20043;-84
2023/11/25 04:45:45;;;;;;;13.23;2.15;;;1.90;99.90;;;;;;5060430;28;20029;-85
2023/11/25 04:48:11;;;;;;;10.73;2.20;;;1.80;99.90;;;;;;5042413;28;20032;-84
2023/11/25 04:50:36;;;;;;;11.50;2.30;;;2.00;99.90;;;;;;5043039;28;20033;-86
2023/11/25 04:53:02;;;;;;;11.38;2.38;;;2.00;99.90;;;;;;5046227;28;20025;-85
2023/11/25 04:55:27;;;;;;;7.57;1.63;;;2.00;99.90;;;;;;5028044;28;20023;-85
2023/11/25 04:57:54;;;;;;;11.43;2.58;;;2.00;99.90;;;;;;5046908;28;20032;-86
2023/11/25 05:00:21;;;;;;;8.80;1.70;;;1.90;99.90;;;;;;5061942;28;20139;-86
2023/11/25 05:02:47;;;;;;;4.63;1.92;;;2.00;99.90;;;;;;5028140;28;20031;-86
2023/11/25 05:05:12;;;;;;;16.40;2.30;;;1.90;99.90;;;;;;5028882;28;20032;-84
2023/11/25 05:07:38;;;;;;;14.05;1.75;;;2.00;99.90;;;;;;5039888;28;20037;-83
2023/11/25 05:10:05;;;;;;;19.75;2.90;;;2.00;99.90;;;;;;5059352;28;20025;-86
2023/11/25 05:12:31;;;;;;;10.43;2.20;;;1.90;99.90;;;;;;5040423;28;20037;-86
2023/11/25 05:14:57;;;;;;;11.90;2.63;;;2.00;99.90;;;;;;5026218;28;20032;-87
2023/11/25 05:17:22;;;;;;;13.30;2.60;;;1.90;99.90;;;;;;5028090;28;20043;-86
2023/11/25 05:19:48;;;;;;;12.15;2.13;;;2.00;99.90;;;;;;5027282;28;20036;-87
2023/11/25 05:22:14;;;;;;;9.63;2.00;;;2.00;99.90;;;;;;5026534;28;20036;-86
2023/11/25 05:24:39;;;;;;;4.53;1.30;;;2.00;99.90;;;;;;5041019;28;20518;-86
2023/11/25 05:27:05;;;;;;;5.75;1.30;;;1.90;99.90;;;;;;5043095;28;20036;-87
2023/11/25 05:29:30;;;;;;;2.47;1.08;;;1.90;99.90;;;;;;5042382;28;20045;-87
2023/11/25 05:31:57;;;;;;;9.63;1.15;;;1.90;99.90;;;;;;5062088;28;20096;-87
2023/11/25 05:34:24;;;;;;;4.47;1.40;;;1.90;99.90;;;;;;5041584;28;20106;-87
2023/11/25 05:36:49;;;;;;;18.13;2.40;;;1.90;99.90;;;;;;5044489;28;20045;-87
2023/11/25 05:39:20;;;;;;;15.38;2.33;;;2.10;99.90;;;;;;5055096;28;20047;-87
2023/11/25 05:41:51;;;;;;;9.10;2.03;;;2.10;99.90;;;;;;5040957;28;20689;-87
2023/11/25 05:44:20;;;;;;;10.93;2.10;;;2.10;99.90;;;;;;5031790;28;20029;-86
2023/11/25 05:46:45;;;;;;;10.77;1.80;;;2.20;99.90;;;;;;5034122;28;20127;-87
2023/11/25 05:49:11;;;;;;;9.35;1.92;;;2.20;99.90;;;;;;5056199;28;20519;-81
2023/11/25 05:51:44;;;;;;;3.60;1.17;;;2.20;99.90;;;;;;5026020;28;20060;-86
2023/11/25 05:54:13;;;;;;;19.88;2.35;;;2.20;99.90;;;;;;5048023;28;20033;-87
2023/11/25 05:56:42;;;;;;;15.93;1.75;;;2.20;99.90;;;;;;5041984;28;20125;-86
2023/11/25 05:59:08;;;;;;;7.90;1.70;;;2.40;99.90;;;;;;5026740;28;20037;-87
2023/11/25 06:01:34;;;;;;;17.85;1.75;;;2.30;99.90;;;;;;5056043;28;20029;-87
2023/11/25 06:04:00;;;;;;;2.55;1.23;;;2.30;99.90;;;;;;5035983;28;20143;-86
2023/11/25 06:06:26;;;;;;;13.65;2.13;;;2.40;99.90;;;;;;5059360;28;20070;-85
2023/11/25 06:08:51;;;;;;;8.38;2.35;;;2.30;99.90;;;;;;5054307;28;20039;-87
2023/11/25 06:11:26;;;;;;;15.05;2.08;;;2.40;99.90;;;;;;5041941;28;20035;-79
2023/11/25 06:13:56;;;;;;;16.13;2.28;;;2.40;99.90;;;;;;5044543;28;20037;-85
2023/11/25 06:16:22;;;;;;;13.25;1.60;;;2.40;99.90;;;;;;5035835;28;20456;-84
2023/11/25 06:18:48;;;;;;;14.52;2.47;;;2.40;99.90;;;;;;5024332;28;20033;-85
2023/11/25 06:21:14;;;;;;;13.80;2.63;;;2.50;99.90;;;;;;5026033;28;20032;-86
2023/11/25 06:23:42;;;;;;;13.00;2.22;;;2.40;99.90;;;;;;5038023;28;20029;-83
2023/11/25 06:26:10;;;;;;;16.63;2.65;;;2.40;99.90;;;;;;5054912;28;20535;-83
2023/11/25 06:28:44;;;;;;;12.70;1.98;;;2.50;99.90;;;;;;5038414;28;20131;-77
2023/11/25 06:31:11;;;;;;;11.25;2.10;;;2.60;99.90;;;;;;5039276;28;20032;-78
2023/11/25 06:33:38;;;;;;;11.98;2.53;;;2.60;99.90;;;;;;5036537;28;20429;-77
2023/11/25 06:36:05;;;;;;;16.42;2.90;;;2.70;99.90;;;;;;5053270;28;20037;-78
2023/11/25 06:38:31;;;;;;;29.25;3.35;;;2.60;99.90;;;;;;5039408;28;20547;-77
2023/11/25 06:40:56;;;;;;;14.20;2.13;;;2.60;99.90;;;;;;5042159;28;20127;-80
2023/11/25 06:43:22;;;;;;;18.17;3.03;;;2.60;99.90;;;;;;5044223;28;20060;-76
2023/11/25 06:45:49;;;;;;;21.52;2.47;;;2.60;99.90;;;;;;5028098;28;20120;-79
2023/11/25 06:48:19;;;;;;;11.68;2.03;;;2.60;99.90;;;;;;5057920;28;20635;-86
2023/11/25 06:50:45;;;;;;;19.33;3.65;;;2.70;99.90;;;;;;5028601;28;20511;-83
2023/11/25 06:53:10;;;;;;;24.33;2.65;;;2.80;99.90;;;;;;5021914;28;20028;-84
2023/11/25 06:55:41;;;;;;;16.02;2.63;;;2.80;99.90;;;;;;5024444;28;20061;-82
2023/11/25 06:58:12;;;;;;;11.65;2.55;;;2.80;99.90;;;;;;5040792;28;20099;-85
2023/11/25 07:00:39;;;;;;;12.43;2.25;;;2.80;99.90;;;;;;5039961;28;20033;-84
2023/11/25 07:03:05;;;;;;;6.00;1.08;;;2.80;99.90;;;;;;5043780;28;20478;-85
2023/11/25 07:05:31;;;;;;;7.22;1.67;;;2.80;99.90;;;;;;5026935;28;20039;-85
2023/11/25 07:07:57;;;;;;;4.20;1.08;;;2.80;99.90;;;;;;5044696;28;20036;-86
2023/11/25 07:10:22;;;;;;;11.50;2.28;;;2.80;99.90;;;;;;5030277;28;20420;-86
2023/11/25 07:12:48;;;;;;;13.13;2.55;;;2.80;99.90;;;;;;5040559;28;20055;-85
2023/11/25 07:15:14;;;;;;;11.60;2.15;;;2.80;99.90;;;;;;5041937;28;20598;-86
2023/11/25 07:17:40;;;;;;;10.15;1.85;;;2.70;99.90;;;;;;5057585;28;20043;-82
2023/11/25 07:20:11;;;;;;;7.10;1.60;;;2.70;99.90;;;;;;5046018;28;20522;-84
2023/11/25 07:22:38;;;;;;;5.10;1.48;;;2.60;99.90;;;;;;5046676;28;20032;-78
2023/11/25 07:25:05;;;;;;;7.63;1.40;;;2.70;99.90;;;;;;5062108;28;20036;-80
2023/11/25 07:27:30;;;;;;;9.52;1.02;;;2.60;99.90;;;;;;5027247;28;20032;-78
2023/11/25 07:30:00;;;;;;;2.35;0.73;;;2.70;99.90;;;;;;5046406;28;20176;-76
2023/11/25 07:32:26;;;;;;;9.85;1.52;;;2.60;99.90;;;;;;5050232;28;20494;-75
2023/11/25 07:34:52;;;;;;;14.77;1.40;;;2.60;99.90;;;;;;5045187;28;20120;-77
2023/11/25 07:37:18;;;;;;;10.15;2.17;;;2.70;99.90;;;;;;5039311;28;20270;-76
2023/11/25 07:39:44;;;;;;;2.80;0.30;;;2.70;99.90;;;;;;5046554;28;20028;-77
2023/11/25 07:42:10;;;;;;;2.65;1.00;;;2.70;99.90;;;;;;5046773;28;20438;-77
2023/11/25 07:44:36;;;;;;;11.88;2.28;;;2.90;99.90;;;;;;5039922;28;20043;-77
2023/11/25 07:47:02;;;;;;;7.45;1.25;;;2.80;99.90;;;;;;5033113;28;20028;-78
2023/11/25 07:49:31;;;;;;;8.85;1.27;;;2.70;99.90;;;;;;5032205;28;20577;-77
2023/11/25 07:51:57;;;;;;;6.72;2.10;;;2.80;99.90;;;;;;5059442;28;20484;-78
2023/11/25 07:54:23;;;;;;;5.32;1.52;;;2.80;99.90;;;;;;5043407;28;20116;-77
2023/11/25 07:56:49;;;;;;;6.63;1.45;;;2.80;99.90;;;;;;5060564;28;20049;-77
2023/11/25 07:59:15;;;;;;;4.97;1.48;;;2.80;99.90;;;;;;5043920;28;20079;-76
2023/11/25 08:01:40;;;;;;;9.05;1.85;;;2.80;99.90;;;;;;5062748;28;20056;-77
2023/11/25 08:04:06;;;;;;;12.07;2.25;;;2.90;99.90;;;;;;5029323;28;20475;-77
2023/11/25 08:06:32;;;;;;;11.27;2.08;;;2.80;99.90;;;;;;5043925;28;20048;-76
2023/11/25 08:08:57;;;;;;;13.38;1.50;;;2.90;99.90;;;;;;5032482;28;20032;-76
2023/11/25 08:11:23;;;;;;;6.60;1.73;;;2.80;99.90;;;;;;5044276;28;20384;-77
2023/11/25 08:13:50;;;;;;;13.85;2.30;;;2.90;99.90;;;;;;5047674;28;20037;-85
2023/11/25 08:16:16;;;;;;;8.93;2.05;;;2.90;99.90;;;;;;5045090;28;20051;-82
2023/11/25 08:18:41;;;;;;;10.38;1.90;;;2.90;99.90;;;;;;5060426;28;20060;-83
2023/11/25 08:21:07;;;;;;;7.88;1.75;;;3.00;99.90;;;;;;5045348;28;20052;-83
2023/11/25 08:23:32;;;;;;;10.23;1.60;;;3.00;99.90;;;;;;5048739;28;20460;-85
2023/11/25 08:25:58;;;;;;;8.77;1.75;;;3.00;99.90;;;;;;5063457;28;20033;-85
2023/11/25 08:28:24;;;;;;;6.85;1.80;;;3.00;99.90;;;;;;5047898;28;20020;-85
2023/11/25 08:30:50;;;;;;;16.83;2.38;;;3.10;99.90;;;;;;5063351;28;20116;-85
2023/11/25 08:33:16;;;;;;;10.25;2.20;;;3.10;99.90;;;;;;5049351;28;20445;-79
2023/11/25 08:35:41;;;;;;;7.95;2.25;;;3.10;99.90;;;;;;5047228;28;20070;-77
2023/11/25 08:38:07;;;;;;;5.60;1.70;;;3.10;99.90;;;;;;5063198;28;20059;-78
2023/11/25 08:40:34;;;;;;;13.13;3.00;;;3.10;99.90;;;;;;5062884;28;20033;-78
2023/11/25 08:43:08;;;;;;;12.30;1.55;;;3.10;99.90;;;;;;5058451;28;20384;-78
2023/11/25 08:45:34;;;;;;;6.05;1.90;;;3.40;99.90;;;;;;5030894;28;20037;-77
2023/11/25 08:48:00;;;;;;;9.68;1.88;;;3.20;99.90;;;;;;5046459;28;20161;-78
2023/11/25 08:50:25;;;;;;;11.02;2.95;;;3.30;99.90;;;;;;5026665;28;20101;-77
2023/11/25 08:52:51;;;;;;;8.55;2.67;;;3.30;99.90;;;;;;5061958;28;20047;-77
2023/11/25 08:55:19;;;;;;;10.32;2.40;;;3.30;99.90;;;;;;5041491;28;20032;-76
2023/11/25 08:57:45;;;;;;;7.30;1.92;;;3.40;99.90;;;;;;5058893;28;20052;-76
2023/11/25 09:00:19;;;;;;;12.07;2.17;;;3.40;99.90;;;;;;5040211;28;20060;-78
2023/11/25 09:02:46;;;;;;;8.52;1.60;;;3.50;99.90;;;;;;5045312;28;20502;-76
2023/11/25 09:05:14;;;;;;;12.88;2.42;;;3.50;99.90;;;;;;5053530;28;20112;-77
2023/11/25 09:07:42;;;;;;;9.40;2.20;;;3.60;99.90;;;;;;5046456;28;20033;-78
2023/11/25 09:10:08;;;;;;;12.07;2.15;;;3.70;99.90;;;;;;5026803;28;20036;-77
2023/11/25 09:12:34;;;;;;;5.03;0.88;;;3.80;99.90;;;;;;5046110;28;20044;-77
2023/11/25 09:14:59;;;;;;;12.98;4.05;;;3.90;99.90;;;;;;5055800;28;20060;-77
2023/11/25 09:17:26;;;;;;;6.47;3.35;;;4.00;99.90;;;;;;5066995;28;20049;-76
2023/11/25 09:19:51;;;;;;;4.82;1.92;;;3.90;99.90;;;;;;5061799;28;20403;-76
2023/11/25 09:22:17;;;;;;;10.32;3.10;;;4.00;99.90;;;;;;5056820;28;20025;-77
2023/11/25 09:24:44;;;;;;;11.65;1.92;;;4.00;99.90;;;;;;5029803;28;20518;-76
2023/11/25 09:27:11;;;;;;;9.27;2.08;;;4.10;99.90;;;;;;5030174;28;20450;-77
2023/11/25 09:29:37;;;;;;;12.00;4.47;;;4.10;99.90;;;;;;5052509;28;20060;-77
2023/11/25 09:32:04;;;;;;;7.97;3.53;;;4.20;99.90;;;;;;5027169;28;20048;-77
2023/11/25 09:34:30;;;;;;;9.82;2.42;;;4.20;99.90;;;;;;5032596;28;20067;-77
2023/11/25 09:36:55;;;;;;;10.82;3.47;;;4.20;99.90;;;;;;5058542;28;20116;-76
2023/11/25 09:39:21;;;;;;;10.80;2.45;;;4.30;99.90;;;;;;5046388;28;20041;-76
2023/11/25 09:41:46;;;;;;;8.23;1.83;;;4.30;99.90;;;;;;5043604;28;20033;-84
2023/11/25 09:44:14;;;;;;;8.18;1.20;;;4.30;99.90;;;;;;5042059;28;20119;-83
2023/11/25 09:46:40;;;;;;;11.18;1.83;;;4.30;99.90;;;;;;5047338;28;20467;-84
2023/11/25 09:49:07;;;;;;;6.90;1.42;;;4.20;99.90;;;;;;5040506;28;20119;-84
2023/11/25 09:51:32;;;;;;;4.93;2.28;;;4.30;99.90;;;;;;5057442;28;20044;-84
2023/11/25 09:54:01;;;;;;;5.53;1.60;;;4.30;99.90;;;;;;5038108;28;20052;-83
2023/11/25 09:56:27;;;;;;;7.97;1.98;;;4.30;99.90;;;;;;5060382;28;20243;-83
2023/11/25 09:58:53;;;;;;;3.70;1.20;;;4.40;99.90;;;;;;5059582;28;20036;-86
2023/11/25 10:01:19;;;;;;;13.35;2.35;;;4.40;99.90;;;;;;5058230;28;20404;-86
2023/11/25 10:03:45;;;;;;;0.80;0.52;;;4.50;99.90;;;;;;5057074;28;20454;-85
2023/11/25 10:06:11;;;;;;;11.45;2.90;;;4.60;99.90;;;;;;5055030;28;20025;-84
2023/11/25 10:08:37;;;;;;;11.95;2.40;;;4.70;99.90;;;;;;5039438;28;20044;-86
2023/11/25 10:11:08;;;;;;;5.10;1.67;;;4.90;99.90;;;;;;5042237;28;20044;-84
2023/11/25 10:13:46;;;;;;;7.03;2.38;;;5.10;99.90;;;;;;5053289;28;20120;-81
2023/11/25 10:16:13;;;;;;;10.95;3.22;;;5.10;99.90;;;;;;5035059;28;20078;-81
2023/11/25 10:18:39;;;;;;;8.68;2.38;;;5.10;99.90;;;;;;5031048;28;20029;-85
2023/11/25 10:21:06;;;;;;;8.43;2.05;;;5.20;99.90;;;;;;5056783;28;20487;-86
2023/11/25 10:23:32;;;;;;;8.20;2.20;;;5.20;99.90;;;;;;5044323;28;20122;-84
2023/11/25 10:26:03;;;;;;;6.18;2.67;;;5.30;99.90;;;;;;5060825;28;20044;-85
2023/11/25 10:28:32;;;;;;;10.32;2.90;;;5.30;99.90;;;;;;5038140;28;20040;-83
2023/11/25 10:30:59;;;;;;;6.10;1.83;;;5.40;99.90;;;;;;5056982;28;20077;-85
2023/11/25 10:33:27;;;;;;;13.13;3.65;;;5.40;99.90;;;;;;5059211;28;20596;-82
2023/11/25 10:35:53;;;;;;;9.55;2.75;;;5.60;99.90;;;;;;5044919;28;20036;-83
2023/11/25 10:38:21;;;;;;;13.07;2.55;;;5.50;99.90;;;;;;5028478;28;20085;-85
2023/11/25 10:40:50;;;;;;;8.13;2.30;;;5.40;99.90;;;;;;5045210;28;20021;-84
2023/11/25 10:43:18;;;;;;;10.43;2.67;;;5.50;99.90;;;;;;5031653;28;20020;-86
2023/11/25 10:45:44;;;;;;;7.38;1.55;;;5.50;99.90;;;;;;5038762;28;20039;-86
2023/11/25 10:48:11;;;;;;;10.40;2.70;;;5.50;99.90;;;;;;5033985;28;20033;-85
2023/11/25 10:50:39;;;;;;;8.63;2.03;;;5.50;99.90;;;;;;5022894;28;20203;-83
2023/11/25 10:53:05;;;;;;;9.27;2.10;;;5.50;99.90;;;;;;5017325;28;20033;-78
2023/11/25 10:55:32;;;;;;;10.18;2.20;;;5.50;99.90;;;;;;5008751;28;20032;-78
2023/11/25 10:57:59;;;;;;;10.35;2.10;;;5.40;99.90;;;;;;5061206;28;20385;-79
2023/11/25 11:00:28;;;;;;;14.35;2.95;;;5.40;99.90;;;;;;5015141;28;20392;-78
2023/11/25 11:02:54;;;;;;;9.02;2.70;;;5.40;99.90;;;;;;5023110;28;20464;-79
2023/11/25 11:05:44;;;;;;;9.88;2.45;;;5.50;99.90;;;;;;5061852;28;20036;-79
2023/11/25 11:08:31;;;;;;;10.45;3.17;;;5.50;99.90;;;;;;5065593;28;20473;-78
2023/11/25 11:11:00;;;;;;;13.18;3.67;;;5.60;99.90;;;;;;5045971;28;20115;-78
2023/11/25 11:13:33;;;;;;;9.68;2.65;;;5.60;99.90;;;;;;5046705;28;20778;-78
2023/11/25 11:16:09;;;;;;;12.00;2.92;;;5.60;99.90;;;;;;5047413;28;20032;-78
2023/11/25 11:18:38;;;;;;;;;;;5.60;99.90;;;;;;5035013;28;20100;-78
2023/11/25 11:21:08;;;;;;;6.43;2.70;;;5.70;99.90;;;;;;5055782;28;19908;-78
2023/11/25 11:23:37;;;;;;;14.85;3.63;;;5.80;99.90;;;;;;5042322;28;20112;-78
2023/11/25 11:26:23;;;;;;;6.15;1.85;;;5.80;99.90;;;;;;5057417;28;20392;-78
2023/11/25 11:29:00;;;;;;;10.13;3.00;;;5.80;99.90;;;;;;5061378;28;20032;-78
2023/11/25 11:31:37;;;;;;;8.02;2.15;;;5.80;99.90;;;;;;5044258;28;20120;-76
2023/11/25 11:34:03;;;;;;;13.10;3.13;;;5.80;99.90;;;;;;5058152;28;20029;-77
2023/11/25 11:36:29;;;;;;;11.38;1.98;;;5.80;99.90;;;;;;5047045;28;20048;-78
2023/11/25 11:38:56;;;;;;;6.18;1.90;;;5.80;99.90;;;;;;5060819;28;20040;-77
2023/11/25 11:41:21;;;;;;;8.93;2.17;;;5.80;99.90;;;;;;5060407;28;20459;-78
2023/11/25 11:44:06;;;;;;;10.55;1.90;;;5.90;99.90;;;;;;5063838;28;20037;-78
2023/11/25 11:46:38;;;;;;;6.20;1.38;;;5.90;99.90;;;;;;5061706;28;20115;-78
2023/11/25 11:49:12;;;;;;;10.38;2.60;;;6.00;99.90;;;;;;5050999;28;20115;-77
2023/11/25 11:51:37;;;;;;;7.90;1.73;;;6.00;99.90;;;;;;5048978;28;20040;-78
2023/11/25 11:54:23;;;;;;;9.32;1.55;;;6.00;99.90;;;;;;5041701;28;20414;-78
2023/11/25 11:57:01;;;;;;;15.07;2.72;;;6.00;99.90;;;;;;5059069;28;20032;-80
2023/11/25 12:00:11;;;;;;;12.32;3.25;;;6.10;99.90;;;;;;5064890;28;20777;-80
2023/11/25 12:02:40;;;;;;;15.50;3.55;;;6.10;99.90;;;;;;5056792;28;20088;-81
2023/11/25 12:05:06;;;;;;;10.00;2.42;;;6.20;99.90;;;;;;5026707;28;20091;-80
2023/11/25 12:07:32;;;;;;;13.27;4.97;;;6.20;99.90;;;;;;5029539;28;20040;-80
2023/11/25 12:09:58;;;;;;;10.70;2.45;;;6.20;99.90;;;;;;5057923;28;20037;-80
2023/11/25 12:12:23;;;;;;;7.55;1.65;;;6.20;99.90;;;;;;5064018;28;20089;-80
2023/11/25 12:14:49;;;;;;;7.10;1.83;;;6.30;99.90;;;;;;4691848;28;10000289;-80
2023/11/25 12:17:17;;;;;;;9.15;2.60;;;6.30;99.90;;;;;;5039008;28;20278;-80
2023/11/25 12:19:43;;;;;;;8.35;1.88;;;6.30;99.90;;;;;;5045734;28;20388;-80
2023/11/25 12:22:11;;;;;;;10.38;1.75;;;6.30;99.90;;;;;;5058992;28;20029;-79
2023/11/25 12:24:40;;;;;;;6.60;1.52;;;6.40;99.90;;;;;;5053820;28;20041;-80
2023/11/25 12:27:06;;;;;;;9.20;1.60;;;6.40;99.90;;;;;;5042969;28;20028;-80
2023/11/25 12:29:34;;;;;;;8.02;2.60;;;6.30;99.90;;;;;;5061280;28;20040;-80
2023/11/25 12:32:00;;;;;;;9.30;2.03;;;6.30;99.90;;;;;;5021611;28;20032;-79
2023/11/25 12:34:25;;;;;;;9.38;2.38;;;6.30;99.90;;;;;;5028578;28;20532;-80
2023/11/25 12:36:51;;;;;;;10.70;1.92;;;6.40;99.90;;;;;;5057749;28;20029;-79
2023/11/25 12:39:17;;;;;;;7.07;1.40;;;6.30;99.90;;;;;;5039714;28;20033;-80
2023/11/25 12:41:43;;;;;;;11.20;1.77;;;6.30;99.90;;;;;;5060366;28;20029;-80
2023/11/25 12:44:11;;;;;;;6.68;2.35;;;6.20;99.90;;;;;;5058892;28;20785;-78
2023/11/25 12:46:38;;;;;;;6.30;1.30;;;6.20;99.90;;;;;;5035323;28;20045;-79
2023/11/25 12:49:22;;;;;;;11.57;3.50;;;6.20;99.90;;;;;;5057043;28;20032;-79
2023/11/25 12:51:50;;;;;;;8.00;3.65;;;6.20;99.90;;;;;;5054449;28;20495;-78
2023/11/25 12:54:16;;;;;;;12.07;4.28;;;6.20;99.90;;;;;;5056186;28;20032;-79